Time;durP1;ratioP1;P1;durP2;ratioP2;P2;SDS_P1;SDS_P2;PMS_P1;PMS_P2;Temp;Humidity;BMP_temperature;BMP_pressure;BME280_temperature;BME280_humidity;BME280_pressure;Samples;Min_cycle;Max_cycle;Signal;HPM_P1;HPM_P2
2022/04/19 00:00:42;;;;;;;;;;;;;;;8.35;56.00;101389.97;5052617;28;20342;-70
2022/04/19 00:03:07;;;;;;;;;;;;;;;8.29;56.19;101393.31;5052645;28;19920;-70
2022/04/19 00:05:33;;;;;;;;;;;;;;;8.24;59.25;101389.50;5052710;28;19909;-70
2022/04/19 00:08:02;;;;;;;;;;;;;;;8.19;56.73;101386.50;5052333;28;20005;-70
2022/04/19 00:10:28;;;;;;;;;;;;;;;8.13;58.54;101378.22;5052672;28;19916;-70
2022/04/19 00:12:54;;;;;;;;;;;;;;;8.10;57.65;101383.88;5052445;28;19990;-70
2022/04/19 00:15:21;;;;;;;;;;;;;;;8.11;57.34;101384.69;5052571;28;19917;-70
2022/04/19 00:17:47;;;;;;;;;;;;;;;8.09;55.42;101381.38;5052271;28;19913;-70
2022/04/19 00:20:12;;;;;;;;;;;;;;;8.05;55.88;101386.19;5052076;28;19952;-70
2022/04/19 00:22:38;;;;;;;;;;;;;;;8.02;59.63;101375.09;5051154;28;20050;-70
2022/04/19 00:25:06;;;;;;;;;;;;;;;7.97;55.85;101378.22;5052395;28;19916;-70
2022/04/19 00:27:31;;;;;;;;;;;;;;;7.91;60.98;101384.19;5052009;28;19925;-70
2022/04/19 00:29:58;;;;;;;;;;;;;;;7.82;56.08;101386.03;5052172;28;20257;-70
2022/04/19 00:32:24;;;;;;;;;;;;;;;7.80;55.80;101377.38;5048950;28;20300;-70
2022/04/19 00:34:49;;;;;;;;;;;;;;;7.79;57.74;101381.03;5051849;28;19916;-70
2022/04/19 00:37:14;;;;;;;;;;;;;;;7.79;55.92;101377.56;5052125;28;20022;-70
2022/04/19 00:39:40;;;;;;;;;;;;;;;7.74;58.05;101369.25;5052173;28;20426;-70
2022/04/19 00:42:07;;;;;;;;;;;;;;;7.69;59.50;101370.56;5052164;28;19912;-70
2022/04/19 00:44:37;;;;;;;;;;;;;;;7.68;57.34;101370.75;5051809;28;19938;-70
2022/04/19 00:47:03;;;;;;;;;;;;;;;7.66;57.01;101365.59;5051959;28;19917;-70
2022/04/19 00:49:28;;;;;;;;;;;;;;;7.59;57.26;101375.22;5051883;28;19973;-70
2022/04/19 00:51:56;;;;;;;;;;;;;;;7.56;57.96;101369.41;5051804;28;19927;-70
2022/04/19 00:54:22;;;;;;;;;;;;;;;7.51;58.18;101367.25;5051395;28;20011;-70
2022/04/19 00:56:47;;;;;;;;;;;;;;;7.46;57.21;101375.69;5051247;28;20578;-70
2022/04/19 00:59:13;;;;;;;;;;;;;;;7.43;57.13;101378.66;5051709;28;19991;-71
2022/04/19 01:01:38;;;;;;;;;;;;;;;7.36;58.54;101372.38;5050233;28;20007;-70
2022/04/19 01:04:03;;;;;;;;;;;;;;;7.31;59.38;101369.38;5051339;28;19924;-70
2022/04/19 01:06:29;;;;;;;;;;;;;;;7.24;58.61;101371.84;5051590;28;20356;-70
2022/04/19 01:08:54;;;;;;;;;;;;;;;7.20;58.93;101372.31;5051444;28;20865;-70
2022/04/19 01:14:03;;;;;;;;;;;;;;;7.13;58.16;101372.16;5051032;28;20025;-70
2022/04/19 01:16:29;;;;;;;;;;;;;;;7.11;60.68;101366.16;5051463;28;20535;-70
2022/04/19 01:18:55;;;;;;;;;;;;;;;7.08;59.30;101374.44;5051311;28;19951;-70
2022/04/19 01:21:20;;;;;;;;;;;;;;;7.08;61.29;101374.44;5049991;28;19960;-70
2022/04/19 01:23:46;;;;;;;;;;;;;;;7.07;59.00;101363.97;5051201;28;19967;-70
2022/04/19 01:26:11;;;;;;;;;;;;;;;7.06;58.69;101365.00;5051043;28;19916;-70
2022/04/19 01:28:36;;;;;;;;;;;;;;;7.06;60.04;101368.47;5051263;28;19925;-70
2022/04/19 01:31:03;;;;;;;;;;;;;;;7.04;59.26;101365.13;5051148;28;19926;-70
2022/04/19 01:33:28;;;;;;;;;;;;;;;7.01;59.71;101365.47;5050523;28;20011;-70
2022/04/19 01:35:53;;;;;;;;;;;;;;;7.00;59.30;101363.81;5050512;28;20011;-70
2022/04/19 01:38:18;;;;;;;;;;;;;;;7.01;58.05;101360.16;5050977;28;19912;-70
2022/04/19 01:40:44;;;;;;;;;;;;;;;6.99;59.44;101362.97;5051007;28;19913;-70
2022/04/19 01:43:09;;;;;;;;;;;;;;;6.94;59.67;101365.28;5050392;28;20375;-70
2022/04/19 01:45:34;;;;;;;;;;;;;;;6.90;61.07;101355.97;5050896;28;20493;-70
2022/04/19 01:48:00;;;;;;;;;;;;;;;6.82;62.53;101352.47;5050812;28;19948;-70
2022/04/19 01:50:26;;;;;;;;;;;;;;;6.79;60.24;101356.28;5050380;28;20793;-70
2022/04/19 01:52:53;;;;;;;;;;;;;;;6.78;58.84;101355.41;5050139;28;19974;-70
2022/04/19 01:55:18;;;;;;;;;;;;;;;6.76;60.44;101353.94;5050614;28;19956;-70
2022/04/19 01:57:45;;;;;;;;;;;;;;;6.74;60.04;101345.31;5050385;28;19959;-70
2022/04/19 02:00:11;;;;;;;;;;;;;;;6.69;60.42;101344.97;5050593;28;20509;-70
2022/04/19 02:02:36;;;;;;;;;;;;;;;6.64;60.78;101339.31;5050505;28;19916;-70
2022/04/19 02:05:02;;;;;;;;;;;;;;;6.58;60.29;101338.94;5082770;28;20364;-70
2022/04/19 02:07:27;;;;;;;;;;;;;;;6.56;60.85;101338.28;5082817;28;20356;-69
2022/04/19 02:09:53;;;;;;;;;;;;;;;6.52;59.35;101338.72;5082461;28;20335;-70
2022/04/19 02:12:18;;;;;;;;;;;;;;;6.51;60.24;101340.56;5048911;28;19920;-70
2022/04/19 02:14:44;;;;;;;;;;;;;;;6.44;59.51;101325.44;5050235;28;19982;-70
2022/04/19 02:17:09;;;;;;;;;;;;;;;6.48;60.33;101338.22;5050275;28;19970;-70
2022/04/19 02:19:35;;;;;;;;;;;;;;;6.48;59.96;101338.22;5050159;28;19966;-70
2022/04/19 02:22:00;;;;;;;;;;;;;;;6.45;60.33;101330.59;5049788;28;19924;-70
2022/04/19 02:24:26;;;;;;;;;;;;;;;6.43;59.97;101334.41;5049959;28;19915;-70
2022/04/19 02:26:51;;;;;;;;;;;;;;;6.41;61.95;101334.53;5049946;28;20014;-70
2022/04/19 02:29:16;;;;;;;;;;;;;;;6.41;60.39;101341.66;5050014;28;19999;-70
2022/04/19 02:31:41;;;;;;;;;;;;;;;6.38;59.46;101332.22;5050123;28;20007;-70
2022/04/19 02:34:07;;;;;;;;;;;;;;;6.38;59.69;101329.56;5049964;28;19916;-70
2022/04/19 02:36:32;;;;;;;;;;;;;;;6.35;59.93;101329.88;5049378;28;19960;-70
2022/04/19 02:38:59;;;;;;;;;;;;;;;6.30;61.28;101330.34;5049484;28;19913;-70
2022/04/19 02:41:24;;;;;;;;;;;;;;;6.20;62.78;101329.63;5049667;28;19923;-70
2022/04/19 02:43:49;;;;;;;;;;;;;;;6.12;62.72;101335.69;5049780;28;19912;-70
2022/04/19 02:46:14;;;;;;;;;;;;;;;6.05;62.59;101321.44;5049776;28;20014;-70
2022/04/19 02:48:40;;;;;;;;;;;;;;;6.00;61.38;101329.00;5049677;28;19919;-70
2022/04/19 02:51:05;;;;;;;;;;;;;;;5.98;63.02;101332.81;5065000;28;20280;-70
2022/04/19 02:53:32;;;;;;;;;;;;;;;5.93;62.24;101328.78;5049560;28;20272;-70
2022/04/19 02:55:59;;;;;;;;;;;;;;;5.91;62.27;101336.00;5048877;28;19916;-70
2022/04/19 02:58:25;;;;;;;;;;;;;;;5.91;62.30;101332.53;5048127;28;20330;-70
2022/04/19 03:00:50;;;;;;;;;;;;;;;5.93;62.13;101322.63;5049491;28;19999;-70
2022/04/19 03:03:15;;;;;;;;;;;;;;;5.95;63.79;101327.78;5049479;28;20336;-70
2022/04/19 03:05:41;;;;;;;;;;;;;;;5.96;63.70;101335.59;5049626;28;19920;-70
2022/04/19 03:08:07;;;;;;;;;;;;;;;5.99;61.53;101329.16;5082053;28;19925;-70
2022/04/19 03:10:32;;;;;;;;;;;;;;;5.98;62.63;101328.31;5049586;28;19919;-70
2022/04/19 03:12:57;;;;;;;;;;;;;;;5.99;61.99;101324.69;5048112;28;19982;-70
2022/04/19 03:15:23;;;;;;;;;;;;;;;6.00;62.58;101323.72;5049503;28;19920;-70
2022/04/19 03:17:48;;;;;;;;;;;;;;;6.02;62.86;101320.91;5049390;28;19913;-70
2022/04/19 03:20:13;;;;;;;;;;;;;;;6.00;61.68;101323.72;5049544;28;19909;-70
2022/04/19 03:28:06;;;;;;;;;;;;;;;5.87;63.47;101328.56;5049590;28;19947;-70
2022/04/19 03:30:32;;;;;;;;;;;;;;;5.84;62.54;101315.59;5049152;28;19916;-70
2022/04/19 03:32:57;;;;;;;;;;;;;;;5.82;62.51;101317.59;5048299;28;19916;-70
2022/04/19 03:35:22;;;;;;;;;;;;;;;5.81;61.01;101323.84;5049028;28;19926;-70
2022/04/19 03:37:48;;;;;;;;;;;;;;;5.78;60.25;101317.06;5048783;28;19955;-70
2022/04/19 03:40:14;;;;;;;;;;;;;;;5.75;62.50;101320.00;5048939;28;19923;-70
2022/04/19 03:42:42;;;;;;;;;;;;;;;5.72;61.78;101318.50;5049373;28;19962;-70
2022/04/19 03:45:08;;;;;;;;;;;;;;;5.71;62.03;101319.50;5049339;28;19920;-70
2022/04/19 03:47:36;;;;;;;;;;;;;;;5.70;63.59;101315.16;5049188;28;19912;-69
2022/04/19 03:50:01;;;;;;;;;;;;;;;5.68;63.96;101314.50;5049066;28;20003;-69
2022/04/19 03:52:27;;;;;;;;;;;;;;;5.65;62.03;101322.75;5049189;28;20007;-70
2022/04/19 03:54:52;;;;;;;;;;;;;;;5.63;64.65;101327.38;5049238;28;20833;-70
2022/04/19 03:57:18;;;;;;;;;;;;;;;5.60;63.15;101324.19;5049029;28;20816;-70
2022/04/19 03:59:43;;;;;;;;;;;;;;;5.56;63.14;101318.38;5049100;28;20287;-70
2022/04/19 04:02:08;;;;;;;;;;;;;;;5.51;63.79;101327.75;5048966;28;19909;-70
2022/04/19 04:04:35;;;;;;;;;;;;;;;5.45;62.75;101323.91;5048724;28;19944;-70
2022/04/19 04:07:04;;;;;;;;;;;;;;;5.41;64.08;101325.19;5082665;28;20000;-70
2022/04/19 04:09:33;;;;;;;;;;;;;;;5.38;63.90;101325.50;5052718;28;19944;-70
2022/04/19 04:12:24;;;;;;;;;;;;;;;5.35;64.13;101328.44;5052534;28;19932;-70
2022/04/19 04:14:49;;;;;;;;;;;;;;;5.33;65.90;101327.75;5051246;28;20007;-70
2022/04/19 04:17:14;;;;;;;;;;;;;;;5.35;64.71;101326.63;5084743;28;20011;-70
2022/04/19 04:19:40;;;;;;;;;;;;;;;5.36;63.83;101328.28;5052344;28;20011;-70
2022/04/19 04:22:06;;;;;;;;;;;;;;;5.36;64.25;101324.78;5051798;28;20268;-70
2022/04/19 04:24:31;;;;;;;;;;;;;;;5.37;64.11;101326.44;5052013;28;19916;-70
2022/04/19 04:26:56;;;;;;;;;;;;;;;5.38;64.39;101331.59;5052128;28;19916;-70
2022/04/19 04:29:22;;;;;;;;;;;;;;;5.38;64.84;101333.41;5052150;28;19917;-70
2022/04/19 04:31:47;;;;;;;;;;;;;;;5.33;64.79;101330.41;5052270;28;19952;-70
2022/04/19 04:34:13;;;;;;;;;;;;;;;5.32;66.79;101326.06;5052061;28;20364;-70
2022/04/19 04:36:38;;;;;;;;;;;;;;;5.34;65.41;101339.97;5052124;28;19913;-70
2022/04/19 04:39:03;;;;;;;;;;;;;;;5.33;66.83;101339.16;5051714;28;19950;-70
2022/04/19 04:41:29;;;;;;;;;;;;;;;5.33;69.44;101344.44;5051331;28;20350;-70
2022/04/19 04:43:54;;;;;;;;;;;;;;;5.30;65.06;101339.47;5051865;28;20451;-70
2022/04/19 04:51:47;;;;;;;;;;;;;;;5.37;66.74;101350.25;5051885;28;19916;-70
2022/04/19 04:54:12;;;;;;;;;;;;;;;5.41;64.17;101352.44;5051884;28;20280;-70
2022/04/19 04:56:37;;;;;;;;;;;;;;;5.43;64.03;101345.22;5051787;28;19916;-70
2022/04/19 04:59:03;;;;;;;;;;;;;;;5.50;67.19;101345.41;5051595;28;19917;-70
2022/04/19 05:01:28;;;;;;;;;;;;;;;5.63;68.10;101350.34;5051562;28;19916;-69
2022/04/19 05:03:53;;;;;;;;;;;;;;;5.76;67.74;101358.72;5051628;28;19927;-69
2022/04/19 05:06:19;;;;;;;;;;;;;;;5.91;69.46;101354.53;5051619;28;19920;-70
2022/04/19 05:08:44;;;;;;;;;;;;;;;6.55;69.27;101354.34;5051582;28;19971;-70
2022/04/19 05:11:09;;;;;;;;;;;;;;;7.55;66.93;101349.19;5051514;28;20276;-70
2022/04/19 05:13:34;;;;;;;;;;;;;;;8.40;65.50;101346.97;5051353;28;20330;-70
2022/04/19 05:16:00;;;;;;;;;;;;;;;8.97;63.36;101346.75;5051222;28;19959;-70
2022/04/19 05:18:25;;;;;;;;;;;;;;;9.35;62.07;101348.72;5050542;28;20418;-70
2022/04/19 05:20:50;;;;;;;;;;;;;;;9.76;61.29;101351.09;5051239;28;20385;-70
2022/04/19 05:23:16;;;;;;;;;;;;;;;9.92;60.21;101345.63;5051249;28;19913;-70
2022/04/19 05:25:41;;;;;;;;;;;;;;;9.77;59.52;101353.59;5051058;28;19924;-70
2022/04/19 05:28:06;;;;;;;;;;;;;;;9.68;59.70;101348.50;5051066;28;19966;-70
2022/04/19 05:30:31;;;;;;;;;;;;;;;9.97;59.15;101350.41;5051185;28;19917;-70
2022/04/19 05:32:57;;;;;;;;;;;;;;;10.48;58.24;101348.78;5051040;28;19920;-70
2022/04/19 05:35:22;;;;;;;;;;;;;;;10.93;56.43;101346.88;5050903;28;19917;-70
2022/04/19 05:37:47;;;;;;;;;;;;;;;10.94;56.45;101342.38;5050831;28;19916;-70
2022/04/19 05:40:14;;;;;;;;;;;;;;;10.77;56.64;101338.25;5050745;28;19912;-70
2022/04/19 05:42:39;;;;;;;;;;;;;;;10.68;56.78;101334.88;5050945;28;19923;-70
2022/04/19 05:45:05;;;;;;;;;;;;;;;10.73;56.64;101335.97;5050923;28;19913;-70
2022/04/19 05:47:31;;;;;;;;;;;;;;;10.81;56.20;101342.22;5050701;28;19915;-70
2022/04/19 05:49:56;;;;;;;;;;;;;;;10.79;55.53;101342.38;5050701;28;19962;-70
2022/04/19 05:52:21;;;;;;;;;;;;;;;10.56;56.06;101344.34;5050760;28;19927;-70
2022/04/19 05:54:46;;;;;;;;;;;;;;;10.30;55.98;101345.63;5050520;28;19917;-72
2022/04/19 05:57:12;;;;;;;;;;;;;;;10.12;56.33;101343.28;5050344;28;20288;-71
2022/04/19 05:59:37;;;;;;;;;;;;;;;10.22;56.71;101351.03;5047974;28;20319;-67
2022/04/19 06:04:53;;;;;;;;;;;;;;;10.29;56.76;101349.28;5050230;28;19935;-70
2022/04/19 06:07:22;;;;;;;;;;;;;;;10.25;55.87;101348.81;5050369;28;19912;-71
2022/04/19 06:09:47;;;;;;;;;;;;;;;10.15;56.58;101352.75;5050415;28;19905;-70
2022/04/19 06:12:13;;;;;;;;;;;;;;;10.11;56.81;101346.94;5050211;28;19920;-70
2022/04/19 06:14:38;;;;;;;;;;;;;;;10.24;56.61;101354.31;5050267;28;20001;-71
2022/04/19 06:17:04;;;;;;;;;;;;;;;10.45;56.16;101348.28;5050253;28;19946;-70
2022/04/19 06:19:29;;;;;;;;;;;;;;;10.52;56.03;101363.38;5050494;28;20010;-70
2022/04/19 06:21:55;;;;;;;;;;;;;;;10.50;55.97;101349.38;5049995;28;20011;-70
2022/04/19 06:24:20;;;;;;;;;;;;;;;10.47;55.65;101364.94;5050148;28;19971;-70
2022/04/19 06:26:45;;;;;;;;;;;;;;;10.43;55.88;101358.34;5048555;28;19915;-70
2022/04/19 06:29:11;;;;;;;;;;;;;;;10.45;56.32;101364.28;5050035;28;19972;-70
2022/04/19 06:31:36;;;;;;;;;;;;;;;10.48;55.88;101364.78;5050153;28;19912;-70
2022/04/19 06:34:01;;;;;;;;;;;;;;;10.53;56.16;101366.88;5049955;28;19960;-70
2022/04/19 06:36:27;;;;;;;;;;;;;;;10.60;56.06;101364.31;5049948;28;19966;-70
2022/04/19 06:38:52;;;;;;;;;;;;;;;10.73;56.23;101367.16;5049916;28;19920;-70
2022/04/19 06:41:17;;;;;;;;;;;;;;;10.83;54.93;101362.38;5049847;28;20383;-71
2022/04/19 06:43:42;;;;;;;;;;;;;;;10.87;54.79;101365.47;5049730;28;20390;-71
2022/04/19 06:46:08;;;;;;;;;;;;;;;11.03;55.29;101375.13;5049811;28;20439;-70
2022/04/19 06:48:34;;;;;;;;;;;;;;;11.25;55.25;101365.31;5049800;28;19927;-72
2022/04/19 06:51:00;;;;;;;;;;;;;;;11.44;55.09;101374.56;5049781;28;19912;-71
2022/04/19 06:53:29;;;;;;;;;;;;;;;11.53;55.06;101378.78;5049610;28;20310;-71
2022/04/19 06:55:55;;;;;;;;;;;;;;;11.60;54.64;101372.47;5049631;28;20430;-71
2022/04/19 06:58:20;;;;;;;;;;;;;;;11.66;54.22;101370.91;5049464;28;19921;-71
2022/04/19 07:00:45;;;;;;;;;;;;;;;11.69;53.77;101381.19;5049424;28;19919;-69
2022/04/19 07:03:11;;;;;;;;;;;;;;;11.75;53.27;101383.09;5049425;28;19916;-72
2022/04/19 07:05:36;;;;;;;;;;;;;;;11.80;53.25;101378.00;5049522;28;20296;-71
2022/04/19 07:08:04;;;;;;;;;;;;;;;11.83;53.20;101380.28;5049648;28;19917;-71
2022/04/19 07:10:30;;;;;;;;;;;;;;;11.88;52.80;101376.25;5049431;28;20023;-71
2022/04/19 07:12:55;;;;;;;;;;;;;;;11.99;53.43;101376.56;5049614;28;19936;-71
2022/04/19 07:15:20;;;;;;;;;;;;;;;12.12;52.51;101383.84;5049572;28;20468;-72
2022/04/19 07:17:46;;;;;;;;;;;;;;;12.24;52.23;101368.13;5049377;28;20418;-71
2022/04/19 07:28:22;;;;;;;;;;;;;;;13.19;49.25;101382.63;5049634;28;19928;-70
2022/04/19 07:30:48;;;;;;;;;;;;;;;13.59;49.30;101382.75;5049229;28;19917;-72
2022/04/19 07:33:13;;;;;;;;;;;;;;;14.17;47.75;101388.38;5049259;28;19917;-72
2022/04/19 07:35:38;;;;;;;;;;;;;;;14.67;48.24;101377.16;5049361;28;19995;-71
2022/04/19 07:38:03;;;;;;;;;;;;;;;14.84;48.29;101389.09;5081474;28;20268;-71
2022/04/19 07:40:29;;;;;;;;;;;;;;;15.31;46.15;101386.22;5049250;28;20280;-71
2022/04/19 07:42:55;;;;;;;;;;;;;;;15.48;45.49;101379.31;5053026;28;20355;-71
2022/04/19 07:45:20;;;;;;;;;;;;;;;15.36;44.05;101391.78;5052848;28;20267;-72
2022/04/19 07:47:45;;;;;;;;;;;;;;;15.26;46.96;101383.34;5052909;28;19913;-70
2022/04/19 07:50:10;;;;;;;;;;;;;;;15.41;47.43;101383.88;5053024;28;19921;-70
2022/04/19 07:52:36;;;;;;;;;;;;;;;16.00;46.68;101385.34;5052939;28;20379;-70
2022/04/19 07:55:01;;;;;;;;;;;;;;;17.03;44.15;101388.50;5053041;28;19916;-70
2022/04/19 07:57:26;;;;;;;;;;;;;;;18.14;41.48;101384.41;5052779;28;19912;-70
2022/04/19 07:59:52;;;;;;;;;;;;;;;19.10;41.45;101384.06;5052820;28;19955;-70
2022/04/19 08:02:19;;;;;;;;;;;;;;;20.22;36.15;101381.69;5052807;28;19951;-70
2022/04/19 08:04:44;;;;;;;;;;;;;;;21.13;34.98;101384.81;5051140;28;19920;-71
2022/04/19 08:07:10;;;;;;;;;;;;;;;21.92;35.64;101385.31;5052701;28;19912;-71
2022/04/19 08:09:35;;;;;;;;;;;;;;;22.37;36.15;101381.31;5052691;28;20318;-71
2022/04/19 08:12:01;;;;;;;;;;;;;;;22.66;34.39;101388.03;5052628;28;19956;-71
2022/04/19 08:14:26;;;;;;;;;;;;;;;22.85;31.57;101387.56;5052402;28;19928;-71
2022/04/19 08:16:51;;;;;;;;;;;;;;;23.32;32.67;101382.03;5084794;28;19912;-71
2022/04/19 08:19:17;;;;;;;;;;;;;;;23.77;31.42;101380.47;5052076;28;19916;-71
2022/04/19 08:21:42;;;;;;;;;;;;;;;24.12;29.98;101375.25;5052353;28;19909;-71
2022/04/19 08:24:07;;;;;;;;;;;;;;;23.94;31.34;101380.16;5052285;28;19954;-71
2022/04/19 08:26:32;;;;;;;;;;;;;;;24.02;30.74;101378.81;5052264;28;19955;-71
2022/04/19 08:28:58;;;;;;;;;;;;;;;23.80;31.56;101368.19;5052168;28;19916;-71
2022/04/19 08:31:23;;;;;;;;;;;;;;;24.39;27.71;101364.84;5084508;28;19977;-71
2022/04/19 08:33:48;;;;;;;;;;;;;;;23.95;28.74;101368.19;5052179;28;20290;-71
2022/04/19 08:36:14;;;;;;;;;;;;;;;22.98;29.18;101362.63;5052204;28;20424;-71
2022/04/19 08:38:39;;;;;;;;;;;;;;;22.59;29.01;101365.69;5052033;28;20463;-71
2022/04/19 08:41:04;;;;;;;;;;;;;;;21.98;32.98;101359.84;5051682;28;19913;-71
2022/04/19 08:43:30;;;;;;;;;;;;;;;20.82;32.49;101369.25;5051525;28;20362;-71
2022/04/19 08:45:55;;;;;;;;;;;;;;;19.75;32.41;101368.50;5051852;28;20364;-71
2022/04/19 08:48:24;;;;;;;;;;;;;;;18.99;35.93;101363.28;5051867;28;19915;-71
2022/04/19 08:50:51;;;;;;;;;;;;;;;18.40;34.41;101361.50;5051948;28;19912;-71
2022/04/19 08:58:44;;;;;;;;;;;;;;;17.31;37.65;101372.56;5052096;28;19962;-70
2022/04/19 09:01:09;;;;;;;;;;;;;;;17.07;36.43;101371.63;5051739;28;19930;-70
2022/04/19 09:03:37;;;;;;;;;;;;;;;16.82;36.84;101376.28;5051677;28;20054;-70
2022/04/19 09:06:03;;;;;;;;;;;;;;;16.74;38.05;101380.13;5052086;28;20395;-71
2022/04/19 09:08:29;;;;;;;;;;;;;;;16.72;37.68;101373.31;5051384;28;20861;-71
2022/04/19 09:11:04;;;;;;;;;;;;;;;16.71;37.11;101374.34;5051674;28;19993;-71
2022/04/19 09:13:29;;;;;;;;;;;;;;;16.57;36.73;101374.47;5051343;28;19927;-70
2022/04/19 09:15:54;;;;;;;;;;;;;;;16.53;38.60;101367.91;5051454;28;19916;-71
2022/04/19 09:18:30;;;;;;;;;;;;;;;16.55;36.74;101376.56;5051353;28;19939;-71
2022/04/19 09:20:59;;;;;;;;;;;;;;;16.47;37.40;101365.28;5050889;28;20372;-71
2022/04/19 09:23:25;;;;;;;;;;;;;;;16.46;37.30;101366.34;5051161;28;20275;-71
2022/04/19 09:25:53;;;;;;;;;;;;;;;16.47;36.74;101365.28;5051215;28;20378;-72
2022/04/19 09:28:19;;;;;;;;;;;;;;;16.46;37.40;101353.69;5050778;28;19921;-71
2022/04/19 09:30:45;;;;;;;;;;;;;;;16.54;37.31;101349.88;5049176;28;20287;-71
2022/04/19 09:33:10;;;;;;;;;;;;;;;16.72;38.34;101354.44;5050969;28;19935;-71
2022/04/19 09:35:45;;;;;;;;;;;;;;;16.85;36.64;101357.84;5050927;28;20356;-70
2022/04/19 09:38:12;;;;;;;;;;;;;;;16.95;37.23;101353.75;5051018;28;20003;-70
2022/04/19 09:40:37;;;;;;;;;;;;;;;16.91;37.22;101344.50;5050960;28;19919;-70
2022/04/19 09:43:10;;;;;;;;;;;;;;;16.92;36.44;101346.13;5050642;28;19909;-70
2022/04/19 09:45:52;;;;;;;;;;;;;;;16.86;38.27;101347.88;5050395;28;20062;-70
2022/04/19 09:48:18;;;;;;;;;;;;;;;16.83;37.03;101340.25;5050683;28;20403;-70
2022/04/19 09:50:58;;;;;;;;;;;;;;;16.86;38.11;101347.88;5050340;28;19952;-71
2022/04/19 09:53:25;;;;;;;;;;;;;;;16.97;38.34;101349.78;5050714;28;19964;-71
2022/04/19 09:55:51;;;;;;;;;;;;;;;17.00;37.67;101335.88;5050765;28;19912;-71
2022/04/19 09:58:16;;;;;;;;;;;;;;;17.12;38.31;101335.94;5050522;28;20406;-70
2022/04/19 10:00:43;;;;;;;;;;;;;;;17.23;37.75;101342.41;5050587;28;19917;-70
2022/04/19 10:08:40;;;;;;;;;;;;;;;17.37;36.59;101329.56;5050709;28;20418;-70
2022/04/19 10:11:06;;;;;;;;;;;;;;;17.28;37.37;101340.66;5048980;28;19912;-71
2022/04/19 10:13:32;;;;;;;;;;;;;;;17.31;37.80;101326.72;5050339;28;19917;-71
2022/04/19 10:15:58;;;;;;;;;;;;;;;17.33;38.15;101340.00;5050269;28;19913;-70
2022/04/19 10:18:24;;;;;;;;;;;;;;;17.30;36.74;101333.19;5049862;28;19912;-70
2022/04/19 10:20:54;;;;;;;;;;;;;;;17.36;36.40;101331.44;5050068;28;19912;-70
2022/04/19 10:23:19;;;;;;;;;;;;;;;17.41;36.69;101325.34;5049660;28;19916;-70
2022/04/19 10:25:46;;;;;;;;;;;;;;;17.46;36.79;101329.00;5049778;28;19912;-70
2022/04/19 10:28:14;;;;;;;;;;;;;;;17.51;37.05;101331.84;5049892;28;19917;-71
2022/04/19 10:30:46;;;;;;;;;;;;;;;17.43;36.14;101326.78;5050122;28;19909;-69
2022/04/19 10:33:31;;;;;;;;;;;;;;;17.45;36.43;101324.69;5043417;28;19982;-71
2022/04/19 10:36:09;;;;;;;;;;;;;;;17.47;36.45;101322.53;5045627;28;19916;-70
2022/04/19 10:38:34;;;;;;;;;;;;;;;17.63;37.21;101312.13;5044548;28;19912;-71
2022/04/19 10:43:13;;;;;;;9.05;4.05;;;;;;;17.77;35.72;101318.97;5123818;27;274895;-70
2022/04/19 10:45:39;;;;;;;12.30;4.68;;;;;;;17.72;35.29;101314.28;5112676;27;20024;-71
2022/04/19 10:48:06;;;;;;;9.13;4.30;;;;;;;17.77;36.38;101310.88;5125652;28;20123;-71
2022/04/19 10:50:34;;;;;;;10.57;4.13;;;;;;;17.89;36.35;101324.41;5116566;27;20509;-71
2022/04/19 10:53:03;;;;;;;11.38;4.85;;;;;;;17.86;36.50;101312.19;5116504;28;20419;-70
2022/04/19 10:55:30;;;;;;;10.55;4.47;;;;;;;17.74;34.61;101314.06;5110057;27;20103;-70
2022/04/19 10:58:12;;;;;;;14.27;4.60;;;;;;;17.70;34.62;101310.16;5119899;28;20106;-70
2022/04/19 11:00:40;;;;;;;8.77;4.43;;;;;;;17.65;35.32;101315.44;5116574;28;20493;-70
2022/04/19 11:03:46;;;;;;;8.82;4.40;;;;;;;17.79;36.60;101314.22;5114853;28;20024;-70
2022/04/19 11:06:43;;;;;;;9.80;3.88;;;;;;;17.82;35.43;101300.25;5082099;28;20047;-70
2022/04/19 11:09:19;;;;;;;9.98;5.70;;;;;;;17.89;36.02;101303.66;5083110;28;20059;-70
2022/04/19 11:11:48;;;;;;;13.35;5.05;;;;;;;17.80;36.04;101302.34;5118682;28;20028;-70
2022/04/19 11:14:18;;;;;;;14.45;5.35;;;;;;;17.83;35.20;101296.47;5116481;27;20054;-70
2022/04/19 11:16:51;;;;;;;12.70;5.18;;;;;;;17.87;36.21;101291.47;5115846;28;20030;-70
2022/04/19 11:19:19;;;;;;;10.23;4.80;;;;;;;18.03;35.50;101301.53;5116403;27;20081;-70
2022/04/19 11:21:49;;;;;;;9.52;4.45;;;;;;;18.05;36.08;101294.03;5120745;28;20348;-70
2022/04/19 11:24:52;;;;;;;10.43;4.93;;;;;;;18.00;34.28;101295.78;5119877;27;20087;-70
2022/04/19 11:27:19;;;;;;;11.40;4.55;;;;;;;17.91;36.76;101298.00;5109469;28;20475;-70
2022/04/19 11:29:49;;;;;;;8.40;3.85;;;;;;;17.96;33.76;101288.16;5122528;28;20033;-70
2022/04/19 11:32:25;;;;;;;8.60;3.38;;;;;;;17.99;34.38;101294.16;5113684;27;20035;-70
2022/04/19 11:35:01;;;;;;;10.10;3.90;;;;;;;18.01;34.46;101275.84;5122576;27;20027;-70
2022/04/19 11:37:29;;;;;;;6.72;3.72;;;;;;;18.14;33.47;101272.91;5117099;28;20030;-70
2022/04/19 11:48:30;;;;;;;6.93;3.58;;;;;;;18.12;32.34;101266.91;5114069;28;20051;-70
2022/04/19 11:51:10;;;;;;;8.10;3.60;;;;;;;17.99;33.68;101270.66;5118919;27;20020;-70
2022/04/19 11:53:36;;;;;;;10.32;3.63;;;;;;;18.07;33.73;101274.88;5108271;28;20049;-71
2022/04/19 11:56:03;;;;;;;13.00;4.90;;;;;;;18.04;33.50;101283.47;5097330;28;20075;-71
2022/04/19 11:58:28;;;;;;;7.93;3.88;;;;;;;17.96;34.21;101288.16;5097237;28;20019;-71
2022/04/19 12:00:58;;;;;;;10.85;4.38;;;;;;;17.88;34.33;101271.50;5096351;28;20060;-71
2022/04/19 12:03:27;;;;;;;11.70;4.35;;;;;;;17.98;33.99;101274.44;5097518;27;20031;-74
2022/04/19 12:06:03;;;;;;;11.73;5.47;;;;;;;18.03;33.46;101284.53;5096211;28;20499;-71
2022/04/19 12:08:41;;;;;;;11.48;5.63;;;;;;;17.93;33.97;101279.72;5096694;28;20039;-71
2022/04/19 12:11:13;;;;;;;10.45;4.25;;;;;;;18.00;34.92;101276.88;5096908;28;20032;-68
2022/04/19 12:13:41;;;;;;;12.43;4.22;;;;;;;18.11;33.58;101265.28;5095142;28;20023;-69
2022/04/19 12:16:39;;;;;;;10.45;4.80;;;;;;;18.14;34.66;101275.59;5097237;27;20048;-72
2022/04/19 12:19:09;;;;;;;11.55;4.65;;;;;;;18.20;35.67;101276.53;5104388;28;20368;-69
2022/04/19 12:21:38;;;;;;;11.68;5.43;;;;;;;18.26;32.89;101270.16;5097219;27;20024;-70
2022/04/19 12:24:04;;;;;;;12.18;4.60;;;;;;;18.35;35.58;101266.06;5096033;28;20024;-69
2022/04/19 12:26:30;;;;;;;11.75;4.75;;;;;;;18.43;34.04;101264.84;5094914;28;20365;-70
2022/04/19 12:29:07;;;;;;;10.85;4.70;;;;;;;18.47;34.76;101266.00;5093081;28;20027;-70
2022/04/19 12:31:40;;;;;;;12.50;4.72;;;;;;;18.51;35.60;101254.50;5102103;28;20028;-70
2022/04/19 12:34:07;;;;;;;10.65;4.60;;;;;;;18.63;34.31;101257.16;5102957;28;20494;-70
2022/04/19 12:36:46;;;;;;;11.80;4.30;;;;;;;18.64;34.13;101268.78;5101243;28;20031;-70
2022/04/19 12:39:12;;;;;;;11.82;4.63;;;;;;;18.67;35.00;101250.22;5108490;28;20023;-70
2022/04/19 12:41:38;;;;;;;9.88;5.00;;;;;;;18.66;33.65;101250.47;5091431;28;20113;-70
2022/04/19 12:44:04;;;;;;;10.48;6.00;;;;;;;18.52;33.05;101249.91;5105017;28;20030;-70
2022/04/19 12:46:32;;;;;;;11.98;4.70;;;;;;;18.33;34.48;101241.97;5101096;28;21023;-70
2022/04/19 12:48:58;;;;;;;12.80;4.93;;;;;;;18.39;32.98;101246.44;5106662;28;20035;-70
2022/04/19 12:51:24;;;;;;;13.63;4.88;;;;;;;18.38;33.88;101254.75;5095132;28;20027;-70
2022/04/19 12:54:06;;;;;;;13.65;5.00;;;;;;;18.32;34.31;101251.16;5093583;28;20031;-70
2022/04/19 12:56:33;;;;;;;12.63;6.00;;;;;;;18.36;33.81;101251.47;5093708;28;20139;-70
2022/04/19 12:58:59;;;;;;;9.82;4.40;;;;;;;18.43;33.59;101237.84;5108338;28;20413;-70
2022/04/19 13:01:24;;;;;;;12.38;5.50;;;;;;;18.49;33.80;101228.78;5102712;28;20034;-70
2022/04/19 13:03:50;;;;;;;11.80;5.35;;;;;;;18.55;33.54;101219.72;5103792;28;20031;-70
2022/04/19 13:14:28;;;;;;;9.48;4.68;;;;;;;18.50;32.49;101228.56;5090908;28;20051;-70
2022/04/19 13:16:54;;;;;;;10.43;4.10;;;;;;;18.47;33.60;101226.34;5096535;28;20028;-70
2022/04/19 13:19:20;;;;;;;13.75;5.05;;;;;;;18.47;33.31;101228.19;5098005;28;20032;-70